createdAt,value
2019-02-23T00:00:51.086Z,7.19
2019-02-23T00:01:52.670Z,7.19
2019-02-23T00:02:51.097Z,7.12
2019-02-23T00:03:51.126Z,7.12
2019-02-23T00:04:50.857Z,7.06
2019-02-23T00:05:50.839Z,7.06
2019-02-23T00:06:51.023Z,7.06
2019-02-23T00:07:51.050Z,7.06
2019-02-23T00:08:50.850Z,7
2019-02-23T00:09:50.905Z,7
2019-02-23T00:10:51.762Z,7
2019-02-23T00:11:50.755Z,6.94
2019-02-23T00:12:51.166Z,7
2019-02-23T00:13:50.891Z,6.94
2019-02-23T00:14:51.294Z,6.94
2019-02-23T00:15:51.042Z,6.87
2019-02-23T00:16:51.182Z,6.87
2019-02-23T00:17:52.633Z,6.87
2019-02-23T00:18:50.933Z,6.87
2019-02-23T00:19:51.019Z,6.81
2019-02-23T00:20:50.805Z,6.81
2019-02-23T00:21:50.875Z,6.75
2019-02-23T00:22:51.895Z,6.75
2019-02-23T00:23:50.847Z,6.75
2019-02-23T00:24:51.106Z,6.69
2019-02-23T00:25:51.021Z,6.69
2019-02-23T00:26:50.838Z,6.69
2019-02-23T00:27:51.143Z,6.69
2019-02-23T00:28:51.150Z,6.69
2019-02-23T00:29:51.180Z,6.62
2019-02-23T00:30:51.277Z,6.62
2019-02-23T00:31:52.204Z,6.56
2019-02-23T00:32:51.862Z,6.56
2019-02-23T00:33:51.099Z,6.56
2019-02-23T00:34:51.214Z,6.56
2019-02-23T00:35:50.877Z,6.56
2019-02-23T00:36:50.869Z,6.56
2019-02-23T00:37:52.676Z,6.5
2019-02-23T00:38:50.598Z,6.5
2019-02-23T00:39:50.581Z,6.5
2019-02-23T00:40:51.143Z,6.5
2019-02-23T00:41:50.742Z,6.44
2019-02-23T00:42:51.156Z,6.44
2019-02-23T00:43:51.276Z,6.37
2019-02-23T00:44:50.749Z,6.44
2019-02-23T00:45:50.879Z,6.44
2019-02-23T00:46:50.880Z,6.37
2019-02-23T00:47:51.195Z,6.31
2019-02-23T00:48:50.771Z,6.31
2019-02-23T00:49:50.747Z,6.37
2019-02-23T00:50:51.214Z,6.31
2019-02-23T00:51:52.232Z,6.31
2019-02-23T00:52:51.128Z,6.37
2019-02-23T00:53:51.745Z,6.31
2019-02-23T00:54:52.568Z,6.37
2019-02-23T00:55:51.127Z,6.31
2019-02-23T00:56:51.356Z,6.37
2019-02-23T00:57:51.154Z,6.31
2019-02-23T00:58:51.170Z,6.25
2019-02-23T00:59:51.383Z,6.31
2019-02-23T01:00:50.802Z,6.25
2019-02-23T01:01:50.979Z,6.25
2019-02-23T01:02:51.075Z,6.25
2019-02-23T01:03:51.675Z,6.25
2019-02-23T01:04:51.298Z,6.19
2019-02-23T01:05:51.098Z,6.19
2019-02-23T01:06:50.932Z,6.19
2019-02-23T01:07:50.752Z,6.19
2019-02-23T01:08:52.567Z,6.12
2019-02-23T01:09:51.033Z,6.19
2019-02-23T01:10:58.708Z,6.12
2019-02-23T01:11:50.808Z,6.12
2019-02-23T01:12:50.911Z,6.12
2019-02-23T01:13:51.072Z,6.06
2019-02-23T01:14:51.927Z,6.12
2019-02-23T01:15:52.546Z,6.12
2019-02-23T01:16:51.165Z,6.12
2019-02-23T01:17:52.664Z,6.06
2019-02-23T01:18:50.835Z,6.06
2019-02-23T01:19:51.099Z,6.06
2019-02-23T01:20:50.704Z,6.06
2019-02-23T01:21:51.318Z,6.12
2019-02-23T01:22:50.737Z,6.06
2019-02-23T01:23:50.896Z,6.06
2019-02-23T01:24:50.776Z,6.12
2019-02-23T01:25:51.230Z,6.12
2019-02-23T01:26:51.335Z,6.06
2019-02-23T01:27:50.692Z,6.06
2019-02-23T01:28:51.063Z,6.06
2019-02-23T01:29:51.004Z,6
2019-02-23T01:30:50.845Z,6.06
2019-02-23T01:31:52.510Z,6.06
2019-02-23T01:32:50.979Z,6
2019-02-23T01:33:50.668Z,6
2019-02-23T01:34:51.390Z,6
2019-02-23T01:35:51.090Z,5.94
2019-02-23T01:36:52.488Z,6
2019-02-23T01:37:50.660Z,5.94
2019-02-23T01:38:50.652Z,5.87
2019-02-23T01:39:51.010Z,5.87
2019-02-23T01:40:50.715Z,5.87
2019-02-23T01:41:51.326Z,5.87
2019-02-23T01:42:50.832Z,5.87
2019-02-23T01:43:52.192Z,5.87
2019-02-23T01:44:51.421Z,5.87
2019-02-23T01:45:50.996Z,5.81
2019-02-23T01:46:50.729Z,5.87
2019-02-23T01:47:50.977Z,5.87
2019-02-23T01:48:50.746Z,5.87
2019-02-23T01:49:59.566Z,5.81
2019-02-23T01:50:50.657Z,5.81
2019-02-23T01:51:50.813Z,5.81
2019-02-23T01:52:51.022Z,5.81
2019-02-23T01:53:51.008Z,5.81
2019-02-23T01:54:51.119Z,5.81
2019-02-23T01:55:50.817Z,5.81
2019-02-23T01:56:50.709Z,5.87
2019-02-23T01:57:51.626Z,5.81
2019-02-23T01:58:51.346Z,5.87
2019-02-23T01:59:50.710Z,5.81
2019-02-23T02:00:51.061Z,5.81
2019-02-23T02:01:50.754Z,5.81
2019-02-23T02:02:50.459Z,5.81
2019-02-23T02:03:50.855Z,5.87
2019-02-23T02:04:50.989Z,5.81
2019-02-23T02:05:51.178Z,5.75
2019-02-23T02:06:50.671Z,5.81
2019-02-23T02:07:50.661Z,5.75
2019-02-23T02:08:52.500Z,5.81
2019-02-23T02:09:51.224Z,5.62
2019-02-23T02:10:50.809Z,5.69
2019-02-23T02:11:51.545Z,5.69
2019-02-23T02:12:50.836Z,5.62
2019-02-23T02:13:50.717Z,5.62
2019-02-23T02:14:50.742Z,5.62
2019-02-23T02:15:52.370Z,5.62
2019-02-23T02:16:51.484Z,5.62
2019-02-23T02:17:50.961Z,5.62
2019-02-23T02:18:51.487Z,5.62
2019-02-23T02:19:52.470Z,5.56
2019-02-23T02:20:51.554Z,5.56
2019-02-23T02:21:51.588Z,5.5
2019-02-23T02:22:50.717Z,5.44
2019-02-23T02:23:50.804Z,5.44
2019-02-23T02:24:52.451Z,5.44
2019-02-23T02:25:50.926Z,5.44
2019-02-23T02:26:50.766Z,5.44
2019-02-23T02:27:51.025Z,5.37
2019-02-23T02:28:50.772Z,5.37
2019-02-23T02:29:50.575Z,5.44
2019-02-23T02:30:51.344Z,5.37
2019-02-23T02:31:51.052Z,5.37
2019-02-23T02:32:51.491Z,5.37
2019-02-23T02:33:50.771Z,5.37
2019-02-23T02:34:50.977Z,5.31
2019-02-23T02:35:50.680Z,5.31
2019-02-23T02:36:50.661Z,5.31
2019-02-23T02:37:51.220Z,5.31
2019-02-23T02:38:50.854Z,5.25
2019-02-23T02:39:50.812Z,5.25
2019-02-23T02:40:50.666Z,5.31
2019-02-23T02:41:51.913Z,5.31
2019-02-23T02:42:52.391Z,5.31
2019-02-23T02:43:50.584Z,5.37
2019-02-23T02:44:51.143Z,5.31
2019-02-23T02:45:50.846Z,5.31
2019-02-23T02:46:50.585Z,5.31
2019-02-23T02:47:51.108Z,5.31
2019-02-23T02:48:50.638Z,5.25
2019-02-23T02:49:50.748Z,5.19
2019-02-23T02:50:50.643Z,5.19
2019-02-23T02:51:50.993Z,5.19
2019-02-23T02:52:51.718Z,5.12
2019-02-23T02:53:50.698Z,5.12
2019-02-23T02:54:50.576Z,5.12
2019-02-23T02:55:50.636Z,5.06
2019-02-23T02:56:52.473Z,5.06
2019-02-23T02:57:51.753Z,5.12
2019-02-23T02:58:50.703Z,5.06
2019-02-23T02:59:50.943Z,5
2019-02-23T03:00:50.720Z,5
2019-02-23T03:01:50.833Z,5
2019-02-23T03:02:52.400Z,4.94
2019-02-23T03:03:51.429Z,4.94
2019-02-23T03:04:50.800Z,4.94
2019-02-23T03:05:52.410Z,4.87
2019-02-23T03:06:50.916Z,4.94
2019-02-23T03:07:50.887Z,4.94
2019-02-23T03:08:50.751Z,4.87
2019-02-23T03:09:50.732Z,4.87
2019-02-23T03:10:52.372Z,4.87
2019-02-23T03:11:52.405Z,4.81
2019-02-23T03:12:50.545Z,4.81
2019-02-23T03:13:50.666Z,4.81
2019-02-23T03:14:51.063Z,4.75
2019-02-23T03:15:50.724Z,4.69
2019-02-23T03:16:50.828Z,4.75
2019-02-23T03:17:50.837Z,4.69
2019-02-23T03:18:50.995Z,4.69
2019-02-23T03:19:50.742Z,4.69
2019-02-23T03:20:50.515Z,4.69
2019-02-23T03:21:52.633Z,4.69
2019-02-23T03:22:50.325Z,4.69
2019-02-23T03:23:50.353Z,4.69
2019-02-23T03:24:50.368Z,4.69
2019-02-23T03:25:51.307Z,4.62
2019-02-23T03:26:52.402Z,4.69
2019-02-23T03:27:50.603Z,4.62
2019-02-23T03:28:50.585Z,4.62
2019-02-23T03:29:50.648Z,4.62
2019-02-23T03:30:50.770Z,4.62
2019-02-23T03:31:50.764Z,4.62
2019-02-23T03:32:51.647Z,4.62
2019-02-23T03:33:50.603Z,4.62
2019-02-23T03:34:51.405Z,4.56
2019-02-23T03:35:51.093Z,4.56
2019-02-23T03:36:50.509Z,4.56
2019-02-23T03:37:50.516Z,4.56
2019-02-23T03:38:50.806Z,4.5
2019-02-23T03:39:50.499Z,4.5
2019-02-23T03:40:50.528Z,4.56
2019-02-23T03:41:50.676Z,4.5
2019-02-23T03:42:50.707Z,4.5
2019-02-23T03:43:50.512Z,4.44
2019-02-23T03:44:50.473Z,4.44
2019-02-23T03:45:51.043Z,4.44
2019-02-23T03:46:51.554Z,4.44
2019-02-23T03:47:50.517Z,4.44
2019-02-23T03:48:50.633Z,4.37
2019-02-23T03:49:50.454Z,4.37
2019-02-23T03:50:50.580Z,4.37
2019-02-23T03:51:50.567Z,4.37
2019-02-23T03:52:52.359Z,4.37
2019-02-23T03:53:50.756Z,4.37
2019-02-23T03:54:50.550Z,4.31
2019-02-23T03:55:51.704Z,4.31
2019-02-23T03:56:50.681Z,4.31
2019-02-23T03:57:50.536Z,4.37
2019-02-23T03:58:52.316Z,4.31
2019-02-23T03:59:51.115Z,4.31
2019-02-23T04:00:50.585Z,4.31
2019-02-23T04:01:50.497Z,4.31
2019-02-23T04:02:51.122Z,4.31
2019-02-23T04:03:50.484Z,4.25
2019-02-23T04:04:50.590Z,4.25
2019-02-23T04:05:50.869Z,4.25
2019-02-23T04:06:50.698Z,4.25
2019-02-23T04:07:51.282Z,4.25
2019-02-23T04:08:52.288Z,4.25
2019-02-23T04:09:50.682Z,4.25
2019-02-23T04:10:50.582Z,4.25
2019-02-23T04:11:50.801Z,4.25
2019-02-23T04:12:50.275Z,4.25
2019-02-23T04:13:50.806Z,4.25
2019-02-23T04:14:50.525Z,4.19
2019-02-23T04:15:50.551Z,4.19
2019-02-23T04:16:51.427Z,4.19
2019-02-23T04:17:50.724Z,4.19
2019-02-23T04:18:51.144Z,4.19
2019-02-23T04:19:50.459Z,4.19
2019-02-23T04:21:02.418Z,4.19
2019-02-23T04:21:50.474Z,4.25
2019-02-23T04:22:50.641Z,4.25
2019-02-23T04:23:50.415Z,4.31
2019-02-23T04:24:50.904Z,4.25
2019-02-23T04:25:50.429Z,4.19
2019-02-23T04:26:50.831Z,4.19
2019-02-23T04:27:50.798Z,4.19
2019-02-23T04:28:51.631Z,4.12
2019-02-23T04:29:50.958Z,4.12
2019-02-23T04:30:50.517Z,4.06
2019-02-23T04:31:50.528Z,4.06
2019-02-23T04:32:50.740Z,4.06
2019-02-23T04:33:50.540Z,4
2019-02-23T04:34:50.857Z,4
2019-02-23T04:35:50.575Z,4
2019-02-23T04:36:50.437Z,4
2019-02-23T04:37:50.873Z,3.94
2019-02-23T04:38:51.402Z,4
2019-02-23T04:39:50.547Z,3.94
2019-02-23T04:40:50.385Z,3.94
2019-02-23T04:41:50.892Z,3.94
2019-02-23T04:42:50.407Z,3.94
2019-02-23T04:43:50.487Z,3.94
2019-02-23T04:44:50.817Z,3.87
2019-02-23T04:45:51.424Z,3.87
2019-02-23T04:46:50.727Z,3.87
2019-02-23T04:47:50.728Z,3.87
2019-02-23T04:48:50.939Z,3.94
2019-02-23T04:49:50.439Z,3.94
2019-02-23T04:50:50.841Z,3.94
2019-02-23T04:51:50.970Z,3.94
2019-02-23T04:52:50.813Z,3.94
2019-02-23T04:53:50.589Z,3.94
2019-02-23T04:54:50.498Z,3.94
2019-02-23T04:55:50.449Z,3.94
2019-02-23T04:56:50.458Z,3.94
2019-02-23T04:57:50.579Z,3.94
2019-02-23T04:58:50.695Z,3.94
2019-02-23T04:59:50.642Z,3.87
2019-02-23T05:00:50.819Z,3.87
2019-02-23T05:01:50.403Z,3.94
2019-02-23T05:02:50.383Z,3.94
2019-02-23T05:03:50.541Z,3.94
2019-02-23T05:04:50.871Z,3.94
2019-02-23T05:05:50.838Z,3.87
2019-02-23T05:06:50.761Z,3.87
2019-02-23T05:07:50.420Z,3.87
2019-02-23T05:08:50.337Z,3.87
2019-02-23T05:09:50.662Z,3.81
2019-02-23T05:10:50.532Z,3.81
2019-02-23T05:11:51.978Z,3.81
2019-02-23T05:12:51.469Z,3.81
2019-02-23T05:13:50.589Z,3.81
2019-02-23T05:14:50.424Z,3.81
2019-02-23T05:15:51.124Z,3.81
2019-02-23T05:16:50.541Z,3.81
2019-02-23T05:17:50.760Z,3.75
2019-02-23T05:18:50.431Z,3.75
2019-02-23T05:19:50.956Z,3.75
2019-02-23T05:20:50.405Z,3.75
2019-02-23T05:21:50.637Z,3.81
2019-02-23T05:22:50.769Z,3.75
2019-02-23T05:23:50.546Z,3.81
2019-02-23T05:24:53.724Z,3.75
2019-02-23T05:25:50.534Z,3.75
2019-02-23T05:26:50.400Z,3.75
2019-02-23T05:27:50.430Z,3.75
2019-02-23T05:28:50.800Z,3.75
2019-02-23T05:29:50.670Z,3.75
2019-02-23T05:30:50.541Z,3.75
2019-02-23T05:31:50.818Z,3.75
2019-02-23T05:32:50.851Z,3.69
2019-02-23T05:33:52.206Z,3.69
2019-02-23T05:34:52.214Z,3.69
2019-02-23T05:35:50.510Z,3.62
2019-02-23T05:36:50.365Z,3.69
2019-02-23T05:37:51.089Z,3.62
2019-02-23T05:38:50.748Z,3.62
2019-02-23T05:39:50.769Z,3.62
2019-02-23T05:40:50.466Z,3.69
2019-02-23T05:41:50.419Z,3.69
2019-02-23T05:43:01.750Z,3.62
2019-02-23T05:43:50.485Z,3.62
2019-02-23T05:44:50.425Z,3.62
2019-02-23T05:45:50.690Z,3.62
2019-02-23T05:46:50.922Z,3.62
2019-02-23T05:47:50.457Z,3.62
2019-02-23T05:48:50.428Z,3.56
2019-02-23T05:49:50.927Z,3.56
2019-02-23T05:50:50.820Z,3.62
2019-02-23T05:51:50.419Z,3.56
2019-02-23T05:52:50.794Z,3.56
2019-02-23T05:53:50.858Z,3.5
2019-02-23T05:54:51.014Z,3.5
2019-02-23T05:55:51.773Z,3.44
2019-02-23T05:56:52.134Z,3.44
2019-02-23T05:57:50.713Z,3.5
2019-02-23T05:58:50.720Z,3.37
2019-02-23T05:59:50.581Z,3.37
2019-02-23T06:00:50.848Z,3.44
2019-02-23T06:01:51.315Z,3.37
2019-02-23T06:02:50.647Z,3.37
2019-02-23T06:03:50.473Z,3.37
2019-02-23T06:04:50.270Z,3.44
2019-02-23T06:05:50.430Z,3.44
2019-02-23T06:06:50.380Z,3.37
2019-02-23T06:07:51.152Z,3.44
2019-02-23T06:08:50.248Z,3.37
2019-02-23T06:09:50.096Z,3.37
2019-02-23T06:10:50.382Z,3.31
2019-02-23T06:11:50.298Z,3.37
2019-02-23T06:12:51.237Z,3.37
2019-02-23T06:13:50.349Z,3.37
2019-02-23T06:14:50.658Z,3.37
2019-02-23T06:15:50.999Z,3.31
2019-02-23T06:16:50.809Z,3.31
2019-02-23T06:17:50.216Z,3.31
2019-02-23T06:18:50.640Z,3.37
2019-02-23T06:19:50.509Z,3.37
2019-02-23T06:20:50.407Z,3.31
2019-02-23T06:21:55.004Z,3.37
2019-02-23T06:22:50.442Z,3.31
2019-02-23T06:23:50.094Z,3.31
2019-02-23T06:24:50.140Z,3.25
2019-02-23T06:25:50.099Z,3.31
2019-02-23T06:26:50.154Z,3.31
2019-02-23T06:27:50.093Z,3.25
2019-02-23T06:28:50.101Z,3.25
2019-02-23T06:29:50.221Z,3.25
2019-02-23T06:30:50.697Z,3.25
2019-02-23T06:31:50.385Z,3.25
2019-02-23T06:32:50.205Z,3.25
2019-02-23T06:33:50.372Z,3.25
2019-02-23T06:34:50.359Z,3.25
2019-02-23T06:35:50.500Z,3.25
2019-02-23T06:36:50.375Z,3.25
2019-02-23T06:37:53.680Z,3.19
2019-02-23T06:38:50.985Z,3.19
2019-02-23T06:39:50.285Z,3.19
2019-02-23T06:40:50.563Z,3.19
2019-02-23T06:41:50.339Z,3.25
2019-02-23T06:42:50.770Z,3.25
2019-02-23T06:43:50.477Z,3.25
2019-02-23T06:44:50.474Z,3.19
2019-02-23T06:45:51.086Z,3.25
2019-02-23T06:46:50.360Z,3.25
2019-02-23T06:47:50.211Z,3.25
2019-02-23T06:48:50.371Z,3.25
2019-02-23T06:49:50.225Z,3.25
2019-02-23T06:50:50.620Z,3.31
2019-02-23T06:51:50.653Z,3.25
2019-02-23T06:52:50.010Z,3.25
2019-02-23T06:53:51.405Z,3.25
2019-02-23T06:54:51.086Z,3.25
2019-02-23T06:55:50.202Z,3.25
2019-02-23T06:56:50.426Z,3.25
2019-02-23T06:57:51.101Z,3.31
2019-02-23T06:58:50.371Z,3.25
2019-02-23T06:59:50.999Z,3.25
2019-02-23T07:00:50.180Z,3.25
2019-02-23T07:01:50.386Z,3.25
2019-02-23T07:02:50.271Z,3.25
2019-02-23T07:03:50.429Z,3.25
2019-02-23T07:04:50.175Z,3.31
2019-02-23T07:05:50.325Z,3.25
2019-02-23T07:06:50.318Z,3.31
2019-02-23T07:07:50.639Z,3.25
2019-02-23T07:08:50.227Z,3.31
2019-02-23T07:09:50.364Z,3.25
2019-02-23T07:10:50.542Z,3.25
2019-02-23T07:11:50.240Z,3.25
2019-02-23T07:12:50.641Z,3.25
2019-02-23T07:13:50.778Z,3.31
2019-02-23T07:14:50.200Z,3.31
2019-02-23T07:15:50.207Z,3.31
2019-02-23T07:16:50.492Z,3.37
2019-02-23T07:17:51.039Z,3.31
2019-02-23T07:18:50.793Z,3.37
2019-02-23T07:19:50.471Z,3.37
2019-02-23T07:20:50.516Z,3.44
2019-02-23T07:21:50.722Z,3.37
2019-02-23T07:22:50.422Z,3.44
2019-02-23T07:23:50.316Z,3.44
2019-02-23T07:24:50.179Z,3.37
2019-02-23T07:25:50.195Z,3.37
2019-02-23T07:26:50.564Z,3.37
2019-02-23T07:27:50.901Z,3.44
2019-02-23T07:28:50.447Z,3.44
2019-02-23T07:29:50.128Z,3.44
2019-02-23T07:30:50.356Z,3.5
2019-02-23T07:31:50.487Z,3.5
2019-02-23T07:32:50.607Z,3.5
2019-02-23T07:33:50.789Z,3.5
2019-02-23T07:34:50.588Z,3.5
2019-02-23T07:35:50.192Z,3.56
2019-02-23T07:36:52.062Z,3.56
2019-02-23T07:37:50.201Z,3.56
2019-02-23T07:38:51.357Z,3.56
2019-02-23T07:39:50.520Z,3.62
2019-02-23T07:40:50.427Z,3.62
2019-02-23T07:41:50.265Z,3.62
2019-02-23T07:42:51.180Z,3.62
2019-02-23T07:43:51.038Z,3.62
2019-02-23T07:44:50.386Z,3.62
2019-02-23T07:45:50.997Z,3.62
2019-02-23T07:46:50.592Z,3.69
2019-02-23T07:47:50.109Z,3.62
2019-02-23T07:48:50.440Z,3.62
2019-02-23T07:49:50.181Z,3.62
2019-02-23T07:50:52.937Z,3.69
2019-02-23T07:51:51.118Z,3.62
2019-02-23T07:52:50.400Z,3.62
2019-02-23T07:53:50.211Z,3.62
2019-02-23T07:54:50.351Z,3.69
2019-02-23T07:55:50.430Z,3.69
2019-02-23T07:56:50.334Z,3.69
2019-02-23T07:57:51.942Z,3.69
2019-02-23T07:58:50.226Z,3.75
2019-02-23T07:59:50.574Z,3.81
2019-02-23T08:00:50.591Z,3.75
2019-02-23T08:01:50.169Z,3.75
2019-02-23T08:02:50.458Z,3.75
2019-02-23T08:03:50.814Z,3.81
2019-02-23T08:04:52.304Z,3.87
2019-02-23T08:05:50.604Z,3.87
2019-02-23T08:06:50.102Z,3.87
2019-02-23T08:07:50.621Z,3.87
2019-02-23T08:08:50.155Z,3.94
2019-02-23T08:09:50.315Z,3.87
2019-02-23T08:10:50.557Z,3.94
2019-02-23T08:11:51.937Z,3.94
2019-02-23T08:12:51.943Z,3.87
2019-02-23T08:13:50.120Z,3.94
2019-02-23T08:14:50.259Z,3.94
2019-02-23T08:15:50.159Z,3.94
2019-02-23T08:16:50.403Z,3.94
2019-02-23T08:17:50.218Z,3.87
2019-02-23T08:18:50.139Z,3.94
2019-02-23T08:19:50.279Z,3.94
2019-02-23T08:20:50.449Z,3.87
2019-02-23T08:21:50.923Z,3.87
2019-02-23T08:22:51.105Z,3.94
2019-02-23T08:23:50.561Z,3.94
2019-02-23T08:24:50.428Z,3.87
2019-02-23T08:25:50.768Z,3.94
2019-02-23T08:26:51.353Z,3.94
2019-02-23T08:27:50.441Z,4
2019-02-23T08:28:50.355Z,4.06
2019-02-23T08:29:50.238Z,4.12
2019-02-23T08:30:50.171Z,4.12
2019-02-23T08:31:50.146Z,4.19
2019-02-23T08:32:50.568Z,4.19
2019-02-23T08:33:50.379Z,4.19
2019-02-23T08:34:50.186Z,4.19
2019-02-23T08:35:49.885Z,4.25
2019-02-23T08:36:50.498Z,4.31
2019-02-23T08:37:50.731Z,4.31
2019-02-23T08:38:50.216Z,4.31
2019-02-23T08:39:50.126Z,4.37
2019-02-23T08:40:50.091Z,4.37
2019-02-23T08:41:50.124Z,4.44
2019-02-23T08:42:50.652Z,4.44
2019-02-23T08:43:51.881Z,4.37
2019-02-23T08:44:50.141Z,4.44
2019-02-23T08:45:50.187Z,4.44
2019-02-23T08:46:50.149Z,4.5
2019-02-23T08:47:50.488Z,4.5
2019-02-23T08:48:50.490Z,4.5
2019-02-23T08:49:50.180Z,4.5
2019-02-23T08:50:50.415Z,4.5
2019-02-23T08:51:50.146Z,4.56
2019-02-23T08:52:50.744Z,4.56
2019-02-23T08:53:50.026Z,4.56
2019-02-23T08:54:50.523Z,4.56
2019-02-23T08:55:50.167Z,4.5
2019-02-23T08:56:50.093Z,4.5
2019-02-23T08:57:50.352Z,4.56
2019-02-23T08:58:50.145Z,4.56
2019-02-23T08:59:50.129Z,4.62
2019-02-23T09:00:50.140Z,4.62
2019-02-23T09:01:50.018Z,4.62
2019-02-23T09:02:50.175Z,4.62
2019-02-23T09:03:50.106Z,4.62
2019-02-23T09:04:50.170Z,4.69
2019-02-23T09:05:51.855Z,4.69
2019-02-23T09:06:50.120Z,4.75
2019-02-23T09:07:50.417Z,4.75
2019-02-23T09:08:50.718Z,4.87
2019-02-23T09:09:51.729Z,4.87
2019-02-23T09:10:50.252Z,4.94
2019-02-23T09:11:50.203Z,5
2019-02-23T09:12:50.188Z,4.94
2019-02-23T09:13:50.105Z,4.94
2019-02-23T09:14:50.566Z,4.94
2019-02-23T09:15:50.548Z,5.06
2019-02-23T09:16:50.672Z,5.06
2019-02-23T09:17:50.168Z,5.06
2019-02-23T09:18:50.269Z,5.12
2019-02-23T09:19:49.975Z,5.12
2019-02-23T09:20:52.326Z,5.12
2019-02-23T09:21:51.822Z,5.12
2019-02-23T09:23:00.749Z,5.12
2019-02-23T09:23:50.428Z,5.12
2019-02-23T09:24:50.220Z,5.19
2019-02-23T09:25:50.095Z,5.25
2019-02-23T09:26:50.065Z,5.31
2019-02-23T09:27:50.187Z,5.37
2019-02-23T09:28:50.091Z,5.37
2019-02-23T09:29:50.180Z,5.37
2019-02-23T09:30:50.802Z,5.31
2019-02-23T09:31:50.256Z,5.31
2019-02-23T09:32:50.096Z,5.37
2019-02-23T09:33:50.576Z,5.37
2019-02-23T09:34:50.368Z,5.44
2019-02-23T09:35:50.203Z,5.5
2019-02-23T09:36:50.075Z,5.44
2019-02-23T09:37:50.122Z,5.5
2019-02-23T09:38:50.300Z,5.56
2019-02-23T09:39:50.042Z,5.56
2019-02-23T09:40:50.053Z,5.5
2019-02-23T09:41:50.071Z,5.44
2019-02-23T09:42:50.231Z,5.5
2019-02-23T09:43:49.951Z,5.56
2019-02-23T09:44:50.245Z,5.56
2019-02-23T09:45:50.331Z,5.62
2019-02-23T09:46:50.077Z,5.69
2019-02-23T09:47:50.469Z,5.75
2019-02-23T09:48:50.185Z,5.75
2019-02-23T09:49:50.487Z,5.81
2019-02-23T09:50:51.851Z,5.75
2019-02-23T09:51:51.808Z,5.75
2019-02-23T09:52:50.703Z,5.81
2019-02-23T09:53:49.934Z,5.87
2019-02-23T09:54:50.140Z,5.87
2019-02-23T09:55:50.096Z,5.94
2019-02-23T09:56:51.799Z,6
2019-02-23T09:57:50.481Z,6
2019-02-23T09:58:50.149Z,6.06
2019-02-23T09:59:50.093Z,6.12
2019-02-23T10:00:50.256Z,6.19
2019-02-23T10:01:50.170Z,6.19
2019-02-23T10:02:50.070Z,6.19
2019-02-23T10:03:50.465Z,6.25
2019-02-23T10:04:50.073Z,6.25
2019-02-23T10:05:50.042Z,6.25
2019-02-23T10:06:50.699Z,6.25
2019-02-23T10:07:50.017Z,6.31
2019-02-23T10:08:49.935Z,6.31
2019-02-23T10:09:49.897Z,6.37
2019-02-23T10:10:49.915Z,6.44
2019-02-23T10:11:50.408Z,6.44
2019-02-23T10:12:50.373Z,6.44
2019-02-23T10:13:51.754Z,6.44
2019-02-23T10:14:50.238Z,6.5
2019-02-23T10:15:50.111Z,6.44
2019-02-23T10:16:50.537Z,6.44
2019-02-23T10:17:50.173Z,6.5
2019-02-23T10:18:49.993Z,6.56
2019-02-23T10:19:50.276Z,6.56
2019-02-23T10:20:49.988Z,6.56
2019-02-23T10:21:50.194Z,6.56
2019-02-23T10:22:50.281Z,6.62
2019-02-23T10:23:50.395Z,6.69
2019-02-23T10:24:50.227Z,6.75
2019-02-23T10:25:49.868Z,6.75
2019-02-23T10:26:50.850Z,6.81
2019-02-23T10:27:50.239Z,6.81
2019-02-23T10:28:49.865Z,6.81
2019-02-23T10:29:49.935Z,6.94
2019-02-23T10:30:49.993Z,6.94
2019-02-23T10:31:49.908Z,6.87
2019-02-23T10:32:50.123Z,6.94
2019-02-23T10:33:49.852Z,6.94
2019-02-23T10:34:50.062Z,6.87
2019-02-23T10:35:50.175Z,6.94
2019-02-23T10:36:51.721Z,7
2019-02-23T10:37:50.087Z,7
2019-02-23T10:38:50.198Z,7.06
2019-02-23T10:39:51.726Z,7.06
2019-02-23T10:40:51.737Z,7.06
2019-02-23T10:41:50.317Z,7.06
2019-02-23T10:42:49.906Z,7.19
2019-02-23T10:43:50.132Z,7.12
2019-02-23T10:44:50.674Z,7.25
2019-02-23T10:45:49.996Z,7.25
2019-02-23T10:46:49.995Z,7.25
2019-02-23T10:47:50.606Z,7.31
2019-02-23T10:48:49.872Z,7.37
2019-02-23T10:49:49.840Z,7.44
2019-02-23T10:50:50.171Z,7.5
2019-02-23T10:51:49.900Z,7.44
2019-02-23T10:52:50.734Z,7.5
2019-02-23T10:53:50.187Z,7.56
2019-02-23T10:54:50.330Z,7.62
2019-02-23T10:55:50.848Z,7.62
2019-02-23T10:56:51.325Z,7.56
2019-02-23T10:57:50.422Z,7.56
2019-02-23T10:58:50.715Z,7.56
2019-02-23T10:59:50.014Z,7.5
2019-02-23T11:00:50.357Z,7.56
2019-02-23T11:01:51.754Z,7.56
2019-02-23T11:02:51.192Z,7.62
2019-02-23T11:03:50.070Z,7.69
2019-02-23T11:04:50.036Z,7.75
2019-02-23T11:05:50.175Z,7.75
2019-02-23T11:06:50.147Z,7.75
2019-02-23T11:07:49.846Z,7.81
2019-02-23T11:08:49.818Z,7.87
2019-02-23T11:09:49.824Z,8
2019-02-23T11:10:51.665Z,8.06
2019-02-23T11:11:49.667Z,8.06
2019-02-23T11:12:49.667Z,8.13
2019-02-23T11:13:49.850Z,8.13
2019-02-23T11:14:49.847Z,8.19
2019-02-23T11:15:50.127Z,8.19
2019-02-23T11:16:51.700Z,8.25
2019-02-23T11:17:50.215Z,8.31
2019-02-23T11:18:50.731Z,8.25
2019-02-23T11:19:50.051Z,8.31
2019-02-23T11:20:49.645Z,8.38
2019-02-23T11:21:50.365Z,8.38
2019-02-23T11:22:50.600Z,8.44
2019-02-23T11:23:49.854Z,8.5
2019-02-23T11:24:49.820Z,8.5
2019-02-23T11:25:50.605Z,8.56
2019-02-23T11:26:49.841Z,8.56
2019-02-23T11:27:49.786Z,8.63
2019-02-23T11:28:50.218Z,8.69
2019-02-23T11:29:49.820Z,8.69
2019-02-23T11:30:50.131Z,8.75
2019-02-23T11:31:51.633Z,8.69
2019-02-23T11:32:50.688Z,8.75
2019-02-23T11:33:50.237Z,8.75
2019-02-23T11:34:50.288Z,8.75
2019-02-23T11:35:50.134Z,8.75
2019-02-23T11:36:49.789Z,8.75
2019-02-23T11:37:50.286Z,8.81
2019-02-23T11:38:50.152Z,8.81
2019-02-23T11:39:51.200Z,8.88
2019-02-23T11:40:50.408Z,8.88
2019-02-23T11:41:49.877Z,8.94
2019-02-23T11:42:50.134Z,9
2019-02-23T11:43:50.600Z,8.94
2019-02-23T11:44:49.835Z,8.94
2019-02-23T11:45:50.429Z,9.06
2019-02-23T11:47:00.817Z,9.06
2019-02-23T11:47:49.793Z,9.13
2019-02-23T11:48:50.595Z,9.13
2019-02-23T11:49:50.165Z,9.13
2019-02-23T11:50:49.759Z,9.19
2019-02-23T11:51:50.634Z,9.25
2019-02-23T11:52:50.189Z,9.31
2019-02-23T11:53:55.576Z,9.38
2019-02-23T11:54:50.203Z,9.38
2019-02-23T11:55:49.738Z,9.38
2019-02-23T11:56:49.865Z,9.38
2019-02-23T11:57:50.172Z,9.38
2019-02-23T11:58:50.133Z,9.44
2019-02-23T11:59:49.857Z,9.5
2019-02-23T12:00:49.837Z,9.5
2019-02-23T12:01:50.605Z,9.56
2019-02-23T12:02:53.165Z,9.56
2019-02-23T12:03:49.802Z,9.63
2019-02-23T12:04:50.244Z,9.56
2019-02-23T12:05:50.173Z,9.69
2019-02-23T12:06:49.796Z,9.69
2019-02-23T12:07:49.954Z,9.69
2019-02-23T12:08:49.802Z,9.69
2019-02-23T12:09:49.808Z,9.75
2019-02-23T12:10:49.741Z,9.75
2019-02-23T12:11:49.751Z,9.81
2019-02-23T12:12:50.004Z,9.69
2019-02-23T12:13:49.859Z,9.69
2019-02-23T12:14:50.307Z,9.81
2019-02-23T12:15:49.728Z,9.88
2019-02-23T12:16:49.752Z,9.94
2019-02-23T12:17:50.350Z,9.88
2019-02-23T12:18:50.036Z,9.94
2019-02-23T12:19:51.569Z,10
2019-02-23T12:20:50.153Z,10.06
2019-02-23T12:21:49.846Z,10.13
2019-02-23T12:22:50.500Z,10.19
2019-02-23T12:23:51.578Z,10.19
2019-02-23T12:24:49.883Z,10.31
2019-02-23T12:25:51.135Z,10.31
2019-02-23T12:26:49.859Z,10.38
2019-02-23T12:27:49.842Z,10.44
2019-02-23T12:28:49.763Z,10.44
2019-02-23T12:29:49.775Z,10.38
2019-02-23T12:30:49.806Z,10.44
2019-02-23T12:31:49.864Z,10.38
2019-02-23T12:32:49.692Z,10.44
2019-02-23T12:33:49.711Z,10.44
2019-02-23T12:34:49.863Z,10.44
2019-02-23T12:35:49.705Z,10.5
2019-02-23T12:36:49.716Z,10.5
2019-02-23T12:37:49.823Z,10.63
2019-02-23T12:38:50.177Z,10.56
2019-02-23T12:39:49.752Z,10.69
2019-02-23T12:40:49.768Z,10.75
2019-02-23T12:41:50.299Z,10.69
2019-02-23T12:42:50.403Z,10.75
2019-02-23T12:43:50.217Z,10.81
2019-02-23T12:44:51.220Z,10.81
2019-02-23T12:45:50.119Z,10.75
2019-02-23T12:46:49.852Z,10.75
2019-02-23T12:47:51.534Z,10.81
2019-02-23T12:48:50.048Z,10.88
2019-02-23T12:49:49.840Z,10.81
2019-02-23T12:50:49.787Z,10.88
2019-02-23T12:51:49.965Z,10.88
2019-02-23T12:52:49.715Z,10.88
2019-02-23T12:53:51.527Z,10.88
2019-02-23T12:54:50.563Z,10.88
2019-02-23T12:55:50.276Z,10.94
2019-02-23T12:56:49.905Z,10.94
2019-02-23T12:57:49.904Z,10.88
2019-02-23T12:58:49.906Z,10.88
2019-02-23T12:59:50.004Z,10.88
2019-02-23T13:00:49.930Z,10.75
2019-02-23T13:01:49.820Z,10.81
2019-02-23T13:02:50.243Z,10.88
2019-02-23T13:03:49.695Z,10.88
2019-02-23T13:04:49.673Z,11
2019-02-23T13:05:50.206Z,11
2019-02-23T13:06:50.432Z,11.06
2019-02-23T13:07:51.811Z,11.06
2019-02-23T13:08:49.850Z,11.06
2019-02-23T13:09:49.728Z,11.12
2019-02-23T13:10:51.495Z,11
2019-02-23T13:11:49.737Z,10.94
2019-02-23T13:12:49.799Z,11
2019-02-23T13:13:49.913Z,10.94
2019-02-23T13:14:50.019Z,10.94
2019-02-23T13:15:49.710Z,10.94
2019-02-23T13:16:49.683Z,11
2019-02-23T13:17:49.922Z,11.06
2019-02-23T13:18:50.150Z,11.06
2019-02-23T13:19:49.801Z,11.12
2019-02-23T13:20:49.806Z,11.12